Time;durP1;ratioP1;P1;durP2;ratioP2;P2;SDS_P1;SDS_P2;PMS_P1;PMS_P2;Temp;Humidity;BMP_temperature;BMP_pressure;BME280_temperature;BME280_humidity;BME280_pressure;Samples;Min_cycle;Max_cycle;Signal;HPM_P1;HPM_P2
2022/10/30 00:00:38;;;;;;;17.40;10.20;;;15.10;84.60;;;;;;5010415;28;20457;-79
2022/10/30 00:03:06;;;;;;;18.90;9.83;;;15.10;84.60;;;;;;5002392;28;20456;-79
2022/10/30 00:05:34;;;;;;;19.13;9.40;;;15.00;84.60;;;;;;5005925;28;20496;-78
2022/10/30 00:08:02;;;;;;;17.73;10.63;;;15.10;84.60;;;;;;5021318;28;20484;-78
2022/10/30 00:10:30;;;;;;;16.47;9.90;;;15.10;84.50;;;;;;5005195;28;20478;-78
2022/10/30 00:13:00;;;;;;;23.53;11.30;;;15.00;84.50;;;;;;4999152;28;20805;-78
2022/10/30 00:15:27;;;;;;;18.57;11.03;;;15.00;84.50;;;;;;5006084;28;20530;-78
2022/10/30 00:17:55;;;;;;;20.23;10.00;;;15.00;84.50;;;;;;5005800;28;20469;-80
2022/10/30 00:20:24;;;;;;;19.87;10.77;;;15.00;84.50;;;;;;5021665;28;20460;-80
2022/10/30 00:22:52;;;;;;;24.63;11.67;;;15.00;84.50;;;;;;5005097;28;21153;-80
2022/10/30 00:25:20;;;;;;;19.00;12.00;;;15.00;84.50;;;;;;5005700;28;20477;-81
2022/10/30 00:27:48;;;;;;;18.97;10.20;;;15.00;84.50;;;;;;5005765;28;20449;-79
2022/10/30 00:30:17;;;;;;;17.40;10.50;;;15.00;84.50;;;;;;5008154;28;20511;-80
2022/10/30 00:32:45;;;;;;;19.70;11.60;;;15.00;84.50;;;;;;5001849;28;20870;-79
2022/10/30 00:35:13;;;;;;;19.80;12.57;;;15.00;84.40;;;;;;5007540;28;20587;-80
2022/10/30 00:37:41;;;;;;;20.70;11.63;;;15.00;84.40;;;;;;5003096;28;20448;-81
2022/10/30 00:40:14;;;;;;;22.07;11.40;;;14.90;84.50;;;;;;5005372;28;20729;-80
2022/10/30 00:42:43;;;;;;;24.70;13.07;;;14.90;84.50;;;;;;4995722;28;20460;-80
2022/10/30 00:45:12;;;;;;;55.30;27.60;;;14.90;84.60;;;;;;4999922;28;20500;-80
2022/10/30 00:47:43;;;;;;;62.00;28.63;;;15.00;84.60;;;;;;5008286;28;21037;-80
2022/10/30 00:50:15;;;;;;;65.07;28.37;;;15.00;84.60;;;;;;4999609;28;20460;-79
2022/10/30 00:52:51;;;;;;;62.27;29.87;;;15.00;84.60;;;;;;5005734;28;20540;-80
2022/10/30 00:55:22;;;;;;;101.30;45.23;;;15.00;84.60;;;;;;5005523;28;20974;-80
2022/10/30 00:57:52;;;;;;;95.67;44.70;;;15.00;84.60;;;;;;5019847;28;20450;-80
2022/10/30 01:00:22;;;;;;;49.33;24.53;;;15.00;84.60;;;;;;5019478;28;20496;-79
2022/10/30 01:02:52;;;;;;;60.03;30.60;;;14.90;84.60;;;;;;5019870;28;20909;-79
2022/10/30 01:05:23;;;;;;;55.50;27.77;;;14.90;84.60;;;;;;5001667;28;20482;-79
2022/10/30 01:07:51;;;;;;;22.50;13.90;;;14.90;84.60;;;;;;5010932;28;20448;-78
2022/10/30 01:10:20;;;;;;;20.80;11.57;;;14.90;84.60;;;;;;5004518;28;20520;-79
2022/10/30 01:12:51;;;;;;;21.07;12.27;;;14.90;84.60;;;;;;5012707;28;20478;-79
2022/10/30 01:15:26;;;;;;;27.60;14.10;;;14.90;84.60;;;;;;4998305;28;21146;-79
2022/10/30 01:18:07;;;;;;;26.50;15.17;;;14.90;84.60;;;;;;5008793;28;20456;-80
2022/10/30 01:20:55;;;;;;;24.07;14.13;;;14.90;84.60;;;;;;5005707;28;20538;-79
2022/10/30 01:23:35;;;;;;;22.20;12.90;;;14.90;84.60;;;;;;5001996;28;20507;-79
2022/10/30 01:26:11;;;;;;;23.20;12.80;;;14.90;84.60;;;;;;5006521;28;20480;-80
2022/10/30 01:28:56;;;;;;;16.90;10.20;;;14.90;84.60;;;;;;5004464;28;20562;-79
2022/10/30 01:31:40;;;;;;;15.43;9.33;;;14.90;84.60;;;;;;4998487;28;20473;-81
2022/10/30 01:34:18;;;;;;;16.20;10.60;;;14.90;84.60;;;;;;4997005;28;20440;-78
2022/10/30 01:36:56;;;;;;;19.80;11.03;;;14.80;84.60;;;;;;5018730;28;20527;-80
2022/10/30 01:39:27;;;;;;;22.77;11.90;;;14.80;84.70;;;;;;5009551;28;20462;-79
2022/10/30 01:41:55;;;;;;;21.03;11.80;;;14.80;84.70;;;;;;5020436;28;20521;-79
2022/10/30 01:44:26;;;;;;;17.17;11.67;;;14.90;84.70;;;;;;5020710;28;20502;-80
2022/10/30 01:47:11;;;;;;;16.17;10.83;;;14.90;84.70;;;;;;5004535;28;20567;-79
2022/10/30 01:49:58;;;;;;;22.47;13.43;;;14.80;84.70;;;;;;4997335;28;20862;-79
2022/10/30 01:52:36;;;;;;;23.30;11.87;;;14.90;84.70;;;;;;5001331;28;20511;-79
2022/10/30 01:55:13;;;;;;;17.77;10.60;;;14.80;84.60;;;;;;5006237;28;20479;-79
2022/10/30 01:57:49;;;;;;;18.63;10.00;;;14.80;84.60;;;;;;5013774;28;20458;-79
2022/10/30 02:00:18;;;;;;;20.77;10.00;;;14.80;84.60;;;;;;4997473;28;20489;-79
2022/10/30 02:02:49;;;;;;;19.27;11.40;;;14.80;84.60;;;;;;5002845;28;20459;-78
2022/10/30 02:05:39;;;;;;;18.40;11.13;;;14.80;84.60;;;;;;4999409;28;20473;-80
2022/10/30 02:08:07;;;;;;;15.80;10.03;;;14.80;84.60;;;;;;5020038;28;20841;-81
2022/10/30 02:10:38;;;;;;;19.93;11.53;;;14.80;84.70;;;;;;5002652;28;20465;-80
2022/10/30 02:13:06;;;;;;;19.20;12.10;;;14.80;84.60;;;;;;5002275;28;20477;-80
2022/10/30 02:15:35;;;;;;;23.27;13.53;;;14.80;84.60;;;;;;5001580;28;20572;-80
2022/10/30 02:18:04;;;;;;;22.30;12.80;;;14.70;84.60;;;;;;5010608;28;20531;-80
2022/10/30 02:20:34;;;;;;;20.33;11.50;;;14.70;84.70;;;;;;5010594;28;20556;-79
2022/10/30 02:23:03;;;;;;;15.13;9.77;;;14.70;84.60;;;;;;5010546;28;20494;-78
2022/10/30 02:25:33;;;;;;;14.53;10.03;;;14.70;84.60;;;;;;5004378;28;20854;-81
2022/10/30 02:28:01;;;;;;;16.30;10.10;;;14.70;84.70;;;;;;5011665;28;20518;-80
2022/10/30 02:30:31;;;;;;;11.57;8.33;;;14.70;84.80;;;;;;5005861;28;20460;-79
2022/10/30 02:33:01;;;;;;;14.10;7.93;;;14.70;84.70;;;;;;5014403;28;20477;-80
2022/10/30 02:35:30;;;;;;;11.50;8.20;;;14.70;84.80;;;;;;5024797;28;20531;-80
2022/10/30 02:37:59;;;;;;;13.37;7.57;;;14.70;84.70;;;;;;5009404;28;20465;-80
2022/10/30 02:40:28;;;;;;;9.13;7.23;;;14.70;84.70;;;;;;5011986;28;21172;-79
2022/10/30 02:42:56;;;;;;;26.93;14.03;;;14.70;84.70;;;;;;5013473;28;20456;-80
2022/10/30 02:45:25;;;;;;;36.30;19.80;;;14.70;84.80;;;;;;5013219;28;20571;-80
2022/10/30 02:47:53;;;;;;;25.80;15.37;;;14.70;84.70;;;;;;5010133;28;20518;-79
2022/10/30 02:50:21;;;;;;;24.97;12.03;;;14.60;84.70;;;;;;5003420;28;20457;-79
2022/10/30 02:52:51;;;;;;;16.90;8.70;;;14.60;84.80;;;;;;5018673;28;20957;-79
2022/10/30 02:55:21;;;;;;;13.57;9.40;;;14.60;84.80;;;;;;5007004;28;20481;-79
2022/10/30 02:57:49;;;;;;;14.50;8.10;;;14.60;84.80;;;;;;5025738;28;20521;-78
2022/10/30 03:00:18;;;;;;;13.90;8.80;;;14.60;84.80;;;;;;5022162;28;20498;-78
2022/10/30 03:02:46;;;;;;;11.80;8.43;;;14.60;84.80;;;;;;5018825;28;20540;-78
2022/10/30 03:05:14;;;;;;;10.90;7.90;;;14.60;84.70;;;;;;5009289;28;20503;-78
2022/10/30 03:07:42;;;;;;;10.70;7.03;;;14.60;84.70;;;;;;5007995;28;20970;-80
2022/10/30 03:10:10;;;;;;;11.37;7.40;;;14.60;84.70;;;;;;5007921;28;20484;-80
2022/10/30 03:12:39;;;;;;;19.93;9.33;;;14.60;84.70;;;;;;5008607;28;20539;-80
2022/10/30 03:15:09;;;;;;;14.97;9.17;;;14.60;84.70;;;;;;5007139;28;20485;-80
2022/10/30 03:17:37;;;;;;;12.37;7.83;;;14.60;84.70;;;;;;5012193;28;20459;-79
2022/10/30 03:20:06;;;;;;;12.63;7.10;;;14.60;84.70;;;;;;5008648;28;20452;-78
2022/10/30 03:22:34;;;;;;;10.77;6.50;;;14.60;84.70;;;;;;5000401;28;20449;-79
2022/10/30 03:25:02;;;;;;;23.00;13.40;;;14.60;84.80;;;;;;5003423;28;20487;-79
2022/10/30 03:27:30;;;;;;;13.67;8.70;;;14.60;84.70;;;;;;5021233;28;20460;-80
2022/10/30 03:29:59;;;;;;;11.97;8.50;;;14.50;84.70;;;;;;5023171;28;20461;-80
2022/10/30 03:32:28;;;;;;;14.53;9.30;;;14.50;84.80;;;;;;5002946;28;20489;-80
2022/10/30 03:34:56;;;;;;;21.90;13.30;;;14.60;84.90;;;;;;5001883;28;21050;-79
2022/10/30 03:37:24;;;;;;;18.30;11.17;;;14.60;84.90;;;;;;5005478;28;20488;-79
2022/10/30 03:39:52;;;;;;;18.30;9.53;;;14.60;84.90;;;;;;5017495;28;20993;-79
2022/10/30 03:42:21;;;;;;;16.60;9.23;;;14.60;84.90;;;;;;5012753;28;21046;-79
2022/10/30 03:44:51;;;;;;;20.73;12.40;;;14.60;84.90;;;;;;5024978;28;20491;-79
2022/10/30 03:47:20;;;;;;;17.87;11.47;;;14.60;84.90;;;;;;4999161;28;20470;-80
2022/10/30 03:49:48;;;;;;;22.43;14.30;;;14.50;84.90;;;;;;5008727;28;20460;-79
2022/10/30 03:52:19;;;;;;;27.83;16.00;;;14.60;84.90;;;;;;5018803;28;21034;-79
2022/10/30 03:54:49;;;;;;;21.50;13.37;;;14.60;84.90;;;;;;5010851;28;20468;-80
2022/10/30 03:57:19;;;;;;;19.23;10.23;;;14.50;84.90;;;;;;5021136;28;20457;-80
2022/10/30 04:00:05;;;;;;;15.20;9.53;;;14.50;84.90;;;;;;5010190;28;20451;-79
2022/10/30 04:02:46;;;;;;;14.33;8.20;;;14.60;85.00;;;;;;5002422;28;20500;-78
2022/10/30 04:05:17;;;;;;;11.90;8.10;;;14.60;85.00;;;;;;5005351;28;20576;-78
2022/10/30 04:07:47;;;;;;;12.97;8.00;;;14.60;85.00;;;;;;5016893;28;20465;-78
2022/10/30 04:10:15;;;;;;;12.67;8.40;;;14.60;85.00;;;;;;5004511;28;20460;-78
2022/10/30 04:12:51;;;;;;;12.10;8.33;;;14.60;85.00;;;;;;5004514;28;20468;-80
2022/10/30 04:15:19;;;;;;;12.47;8.40;;;14.60;85.00;;;;;;5005560;28;21426;-79
2022/10/30 04:17:52;;;;;;;17.10;9.40;;;14.60;85.00;;;;;;5022320;28;20809;-78
2022/10/30 04:20:22;;;;;;;11.63;7.70;;;14.60;85.10;;;;;;4999913;28;20465;-78
2022/10/30 04:22:56;;;;;;;11.40;7.57;;;14.60;85.00;;;;;;5004327;28;20510;-81
2022/10/30 04:25:24;;;;;;;12.70;8.27;;;14.60;85.00;;;;;;5012175;28;20772;-79
2022/10/30 04:27:52;;;;;;;13.47;10.10;;;14.60;85.10;;;;;;5016706;28;20473;-81
2022/10/30 04:30:23;;;;;;;15.63;8.60;;;14.60;85.10;;;;;;5015185;28;20491;-79
2022/10/30 04:32:54;;;;;;;15.10;9.33;;;14.60;85.10;;;;;;5006894;28;20479;-78
2022/10/30 04:35:25;;;;;;;11.20;7.80;;;14.60;85.10;;;;;;4999585;28;20482;-80
2022/10/30 04:37:53;;;;;;;10.93;7.00;;;14.60;85.20;;;;;;5002840;28;20454;-78
2022/10/30 04:40:22;;;;;;;10.37;6.33;;;14.60;85.20;;;;;;5002205;28;21112;-80
2022/10/30 04:42:55;;;;;;;8.90;5.83;;;14.60;85.20;;;;;;5001858;28;20552;-80
2022/10/30 04:45:24;;;;;;;11.17;6.30;;;14.60;85.20;;;;;;5004786;28;20488;-78
2022/10/30 04:48:00;;;;;;;18.97;10.43;;;14.60;85.20;;;;;;5002624;28;20457;-78
2022/10/30 04:50:30;;;;;;;15.10;11.73;;;14.60;85.30;;;;;;5018672;28;20473;-81
2022/10/30 04:53:00;;;;;;;10.20;7.00;;;14.60;85.20;;;;;;5020954;28;20540;-81
2022/10/30 04:55:28;;;;;;;8.40;6.43;;;14.60;85.20;;;;;;5003329;28;20985;-78
2022/10/30 04:57:58;;;;;;;24.03;15.13;;;14.60;85.20;;;;;;5003046;28;20765;-82
2022/10/30 05:00:27;;;;;;;44.50;25.63;;;14.60;85.20;;;;;;5013700;28;20489;-80
2022/10/30 05:03:01;;;;;;;26.10;17.33;;;14.60;85.30;;;;;;5021012;28;20837;-79
2022/10/30 05:05:31;;;;;;;16.40;11.10;;;14.60;85.20;;;;;;5009508;28;20563;-80
2022/10/30 05:07:59;;;;;;;34.13;19.50;;;14.50;85.10;;;;;;5003057;28;21014;-78
2022/10/30 05:10:29;;;;;;;43.07;27.60;;;14.50;85.10;;;;;;5003239;28;20493;-79
2022/10/30 05:12:58;;;;;;;46.77;27.30;;;14.40;85.10;;;;;;5005579;28;20490;-79
2022/10/30 05:15:26;;;;;;;35.43;24.73;;;14.40;85.30;;;;;;5000484;28;20505;-78
2022/10/30 05:17:54;;;;;;;24.13;17.03;;;14.40;85.30;;;;;;5000867;28;20457;-80
2022/10/30 05:20:24;;;;;;;22.57;12.90;;;14.40;85.10;;;;;;5005577;28;21041;-81
2022/10/30 05:22:56;;;;;;;15.00;10.77;;;14.40;85.20;;;;;;5005239;28;20461;-78
2022/10/30 05:25:25;;;;;;;15.20;10.13;;;14.40;85.20;;;;;;4998529;28;20476;-80
2022/10/30 05:27:58;;;;;;;12.07;8.60;;;14.40;85.20;;;;;;5001251;28;20454;-80
2022/10/30 05:30:27;;;;;;;13.93;8.50;;;14.30;85.30;;;;;;5003465;28;20509;-80
2022/10/30 05:33:00;;;;;;;12.40;9.10;;;14.30;85.30;;;;;;5017151;28;20481;-80
2022/10/30 05:35:31;;;;;;;12.30;8.27;;;14.30;85.30;;;;;;5007770;28;20489;-80
2022/10/30 05:37:59;;;;;;;12.70;8.57;;;14.40;85.30;;;;;;5018389;28;20480;-79
2022/10/30 05:40:28;;;;;;;17.30;10.30;;;14.40;85.20;;;;;;4996057;28;20464;-78
2022/10/30 05:42:56;;;;;;;10.93;7.80;;;14.40;85.20;;;;;;5019010;28;20464;-79
2022/10/30 05:45:25;;;;;;;15.63;9.27;;;14.30;85.20;;;;;;5005411;28;20480;-79
2022/10/30 05:47:56;;;;;;;14.47;9.50;;;14.30;85.30;;;;;;5016575;28;20452;-80
2022/10/30 05:50:25;;;;;;;12.43;7.67;;;14.30;85.30;;;;;;5000408;28;20529;-79
2022/10/30 05:53:14;;;;;;;8.70;6.50;;;14.30;85.30;;;;;;4998410;28;20476;-79
2022/10/30 05:55:43;;;;;;;8.73;6.20;;;14.30;85.30;;;;;;5012922;28;20476;-80
2022/10/30 05:58:17;;;;;;;7.43;5.03;;;14.30;85.30;;;;;;5017567;28;20465;-81
2022/10/30 06:00:46;;;;;;;8.63;5.97;;;14.30;85.30;;;;;;5021539;28;20972;-78
2022/10/30 06:03:19;;;;;;;9.10;6.10;;;14.30;85.30;;;;;;5017813;28;20456;-80
2022/10/30 06:05:47;;;;;;;9.10;6.40;;;14.30;85.30;;;;;;5016417;28;20478;-79
2022/10/30 06:08:18;;;;;;;8.17;6.17;;;14.30;85.30;;;;;;5023630;28;20465;-79
2022/10/30 06:10:49;;;;;;;7.77;6.00;;;14.30;85.30;;;;;;5006577;28;20962;-79
2022/10/30 06:13:22;;;;;;;7.80;5.83;;;14.30;85.30;;;;;;5002442;28;20449;-79
2022/10/30 06:16:03;;;;;;;7.43;5.70;;;14.30;85.30;;;;;;5001469;28;20517;-80
2022/10/30 06:18:49;;;;;;;8.20;6.00;;;14.30;85.30;;;;;;5007255;28;20583;-79
2022/10/30 06:21:18;;;;;;;8.23;5.57;;;14.30;85.30;;;;;;5003069;28;20473;-80
2022/10/30 06:24:25;;;;;;;9.23;5.60;;;14.30;85.20;;;;;;4994868;28;21032;-80
2022/10/30 06:27:19;;;;;;;7.33;5.77;;;14.30;85.30;;;;;;5015197;28;20472;-80
2022/10/30 06:29:47;;;;;;;7.50;5.27;;;14.30;85.20;;;;;;5016782;28;20459;-79
2022/10/30 06:32:16;;;;;;;7.10;5.00;;;14.30;85.20;;;;;;5006962;28;20484;-79
2022/10/30 06:34:45;;;;;;;7.27;4.63;;;14.30;85.30;;;;;;5005184;28;20851;-80
2022/10/30 06:37:14;;;;;;;7.90;5.60;;;14.30;85.30;;;;;;5023840;28;20492;-81
2022/10/30 06:39:44;;;;;;;5.87;4.47;;;14.30;85.30;;;;;;5005244;28;20461;-78
2022/10/30 06:42:49;;;;;;;7.93;4.60;;;14.30;85.30;;;;;;4993933;28;20544;-79
2022/10/30 06:45:30;;;;;;;6.27;4.73;;;14.30;85.30;;;;;;5004978;28;20982;-78
2022/10/30 06:48:00;;;;;;;7.00;5.00;;;14.30;85.30;;;;;;5002165;28;20522;-79
2022/10/30 06:50:33;;;;;;;6.60;4.83;;;14.30;85.30;;;;;;5004282;28;20472;-80
2022/10/30 06:53:01;;;;;;;6.90;4.53;;;14.30;85.30;;;;;;5000784;28;21952;-79
2022/10/30 06:55:30;;;;;;;6.90;5.03;;;14.40;85.30;;;;;;5002358;28;20484;-79
2022/10/30 06:58:17;;;;;;;6.93;4.80;;;14.40;85.30;;;;;;4998882;28;20461;-78
2022/10/30 07:01:03;;;;;;;6.33;4.37;;;14.40;85.30;;;;;;5006267;28;20547;-80
2022/10/30 07:03:54;;;;;;;5.70;4.53;;;14.40;85.30;;;;;;5000596;28;20464;-79
2022/10/30 07:06:23;;;;;;;6.40;4.63;;;14.30;85.40;;;;;;5019769;28;20533;-79
2022/10/30 07:08:51;;;;;;;6.07;4.27;;;14.40;85.30;;;;;;5003219;28;20814;-79
2022/10/30 07:11:20;;;;;;;6.43;4.57;;;14.40;85.40;;;;;;5025966;28;20519;-78
2022/10/30 07:14:02;;;;;;;5.33;3.67;;;14.40;85.40;;;;;;5008112;28;20544;-81
2022/10/30 07:16:49;;;;;;;5.70;3.53;;;14.40;85.40;;;;;;4998967;28;20476;-80
2022/10/30 07:19:17;;;;;;;6.13;4.60;;;14.40;85.30;;;;;;5007116;28;20453;-80
2022/10/30 07:21:46;;;;;;;5.87;4.20;;;14.40;85.30;;;;;;4996972;28;20466;-80
2022/10/30 07:24:14;;;;;;;6.33;4.53;;;14.40;85.30;;;;;;5008514;28;20540;-78
2022/10/30 07:27:01;;;;;;;7.20;5.10;;;14.40;85.30;;;;;;5003973;28;20469;-79
2022/10/30 07:29:38;;;;;;;6.53;4.20;;;14.40;85.40;;;;;;5006054;28;20489;-79
2022/10/30 07:32:25;;;;;;;6.50;4.83;;;14.40;85.30;;;;;;5007146;28;21142;-78
2022/10/30 07:35:10;;;;;;;7.60;5.07;;;14.40;85.40;;;;;;5005318;28;20485;-78
2022/10/30 07:37:53;;;;;;;5.83;3.97;;;14.50;85.40;;;;;;5006126;28;20507;-79
2022/10/30 07:40:29;;;;;;;5.80;4.30;;;14.50;85.50;;;;;;5012924;28;20886;-78
2022/10/30 07:43:16;;;;;;;6.33;3.50;;;14.50;85.50;;;;;;5010247;28;20526;-79
2022/10/30 07:45:55;;;;;;;8.37;4.70;;;14.60;85.40;;;;;;5007270;28;20483;-78
2022/10/30 07:48:29;;;;;;;6.57;4.70;;;14.60;85.40;;;;;;5007783;28;20502;-78
2022/10/30 07:51:08;;;;;;;6.20;4.40;;;14.60;85.40;;;;;;5006053;28;20461;-78
2022/10/30 07:53:37;;;;;;;5.60;4.17;;;14.60;85.40;;;;;;5001177;28;20490;-78
2022/10/30 07:56:05;;;;;;;5.53;4.20;;;14.60;85.30;;;;;;5007016;28;20484;-78
2022/10/30 07:58:53;;;;;;;6.00;4.20;;;14.60;85.30;;;;;;5001703;28;20582;-78
2022/10/30 08:01:56;;;;;;;8.07;4.70;;;14.60;85.40;;;;;;4997325;28;20467;-79
2022/10/30 08:04:32;;;;;;;8.00;4.93;;;14.60;85.40;;;;;;5002988;28;21115;-78
2022/10/30 08:07:10;;;;;;;8.77;5.93;;;14.70;85.40;;;;;;4997192;28;20468;-78
2022/10/30 08:09:38;;;;;;;7.27;5.37;;;14.70;85.40;;;;;;5005482;28;20939;-80
2022/10/30 08:12:07;;;;;;;7.27;5.50;;;14.70;85.40;;;;;;5005979;28;20461;-79
2022/10/30 08:14:36;;;;;;;7.10;5.10;;;14.70;85.40;;;;;;5022929;28;21049;-78
2022/10/30 08:17:06;;;;;;;6.77;5.07;;;14.70;85.40;;;;;;5012566;28;20538;-78
2022/10/30 08:19:34;;;;;;;7.93;6.27;;;14.70;85.40;;;;;;5019391;28;20468;-78
2022/10/30 08:22:02;;;;;;;6.80;5.30;;;14.70;85.40;;;;;;5021512;28;21185;-80
2022/10/30 08:24:34;;;;;;;11.97;5.13;;;14.70;85.50;;;;;;5003766;28;20472;-78
2022/10/30 08:27:03;;;;;;;7.50;5.47;;;14.80;85.50;;;;;;5022074;28;21150;-78
2022/10/30 08:29:33;;;;;;;6.80;4.83;;;14.80;85.50;;;;;;5000847;28;20453;-80
2022/10/30 08:32:03;;;;;;;6.40;5.53;;;14.80;85.50;;;;;;5021209;28;20468;-79
2022/10/30 08:34:54;;;;;;;7.77;5.67;;;14.80;85.60;;;;;;5003152;28;20647;-79
2022/10/30 08:37:22;;;;;;;6.83;5.10;;;14.80;85.50;;;;;;5005251;28;20447;-78
2022/10/30 08:39:50;;;;;;;7.80;5.30;;;14.80;85.50;;;;;;5005503;28;20997;-79
2022/10/30 08:42:37;;;;;;;7.80;5.90;;;14.90;85.60;;;;;;5002947;28;20469;-78
2022/10/30 08:45:10;;;;;;;7.10;5.60;;;14.90;85.60;;;;;;5020623;28;20512;-78
2022/10/30 08:47:59;;;;;;;10.07;7.30;;;14.90;85.60;;;;;;5002350;28;20469;-79
2022/10/30 08:50:29;;;;;;;9.23;7.10;;;14.90;85.50;;;;;;5021937;28;20472;-78
2022/10/30 08:53:01;;;;;;;18.97;11.30;;;14.90;85.50;;;;;;5001477;28;21084;-80
2022/10/30 08:55:30;;;;;;;18.03;11.67;;;14.90;85.50;;;;;;5005107;28;20487;-80
2022/10/30 08:58:00;;;;;;;12.93;9.20;;;14.90;85.60;;;;;;5006872;28;20474;-78
2022/10/30 09:00:29;;;;;;;11.77;7.80;;;15.00;85.70;;;;;;5010098;28;20534;-78
2022/10/30 09:03:14;;;;;;;12.13;9.30;;;15.00;85.60;;;;;;5005676;28;20871;-78
2022/10/30 09:06:01;;;;;;;18.90;10.70;;;15.00;85.70;;;;;;5010030;28;20753;-81
2022/10/30 09:09:07;;;;;;;15.70;11.27;;;15.00;85.70;;;;;;4952262;28;20515;-78
2022/10/30 09:11:42;;;;;;;15.13;11.10;;;15.00;85.70;;;;;;4937269;28;20461;-79
2022/10/30 09:14:10;;;;;;;14.27;9.93;;;15.00;85.70;;;;;;4979776;28;21000;-80
2022/10/30 09:16:39;;;;;;;15.07;10.37;;;15.10;85.80;;;;;;5005427;28;20503;-80
2022/10/30 09:19:12;;;;;;;13.23;10.07;;;15.10;85.80;;;;;;5007871;28;20461;-79
2022/10/30 09:21:46;;;;;;;10.50;7.63;;;15.10;85.90;;;;;;5008764;28;20811;-80
2022/10/30 09:24:14;;;;;;;11.10;7.83;;;15.20;85.90;;;;;;5007654;28;20506;-78
2022/10/30 09:26:42;;;;;;;10.00;7.13;;;15.20;85.90;;;;;;5005389;28;20484;-81
2022/10/30 09:29:18;;;;;;;9.07;6.80;;;15.20;86.00;;;;;;5001401;28;20465;-78
2022/10/30 09:32:07;;;;;;;10.00;7.70;;;15.30;86.00;;;;;;5000893;28;21079;-78
2022/10/30 09:34:41;;;;;;;9.60;6.40;;;15.30;86.00;;;;;;5014647;28;20473;-80
2022/10/30 09:37:17;;;;;;;12.40;6.97;;;15.30;86.10;;;;;;5018960;28;20464;-77
2022/10/30 09:39:49;;;;;;;9.77;7.37;;;15.30;86.00;;;;;;5021658;28;20806;-79
2022/10/30 09:42:38;;;;;;;9.80;7.47;;;15.30;86.00;;;;;;5006583;28;20520;-80
2022/10/30 09:45:38;;;;;;;10.40;6.50;;;15.40;86.10;;;;;;5004551;28;20515;-78
2022/10/30 09:48:34;;;;;;;9.90;7.20;;;15.40;86.10;;;;;;5004398;28;20453;-78
2022/10/30 09:51:32;;;;;;;9.70;6.57;;;15.40;86.10;;;;;;5008655;28;20837;-79
2022/10/30 09:54:09;;;;;;;9.30;7.40;;;15.40;86.30;;;;;;5018158;28;20472;-80
2022/10/30 09:56:47;;;;;;;15.40;7.57;;;15.50;86.30;;;;;;5019714;28;21235;-80
2022/10/30 09:59:27;;;;;;;10.53;7.90;;;15.50;86.30;;;;;;4995845;28;20465;-79
2022/10/30 10:02:01;;;;;;;9.10;7.50;;;15.50;86.30;;;;;;5001890;28;20842;-80
2022/10/30 10:04:39;;;;;;;8.83;6.80;;;15.50;86.30;;;;;;5007490;28;20448;-80
2022/10/30 10:07:35;;;;;;;12.13;7.70;;;15.50;86.30;;;;;;5016279;28;20515;-80
2022/10/30 10:10:33;;;;;;;9.60;7.70;;;15.50;86.50;;;;;;4976845;28;20500;-80
2022/10/30 10:13:24;;;;;;;16.40;7.70;;;15.60;86.50;;;;;;4997197;28;20463;-80
2022/10/30 10:15:56;;;;;;;9.60;7.70;;;15.60;86.50;;;;;;5002664;28;20494;-80
2022/10/30 10:18:29;;;;;;;10.17;7.83;;;15.60;86.50;;;;;;5007027;28;20465;-78
2022/10/30 10:21:09;;;;;;;10.57;8.80;;;15.70;86.60;;;;;;5008273;28;21266;-79
2022/10/30 10:23:47;;;;;;;11.63;8.90;;;15.70;86.60;;;;;;5005178;28;20926;-78
2022/10/30 10:26:27;;;;;;;10.73;8.03;;;15.80;86.60;;;;;;5005408;28;20473;-80
2022/10/30 10:29:23;;;;;;;11.77;8.17;;;15.80;86.60;;;;;;5007823;28;20448;-80
2022/10/30 10:32:04;;;;;;;12.10;9.50;;;15.80;86.60;;;;;;5000011;28;20511;-79
2022/10/30 10:35:04;;;;;;;11.67;9.50;;;15.90;86.60;;;;;;5000744;28;21029;-78
2022/10/30 10:37:38;;;;;;;13.20;7.90;;;15.90;86.60;;;;;;5001801;28;20483;-79
2022/10/30 10:40:26;;;;;;;12.50;8.90;;;15.90;86.60;;;;;;5004011;28;20472;-79
2022/10/30 10:43:10;;;;;;;12.77;9.50;;;15.90;86.70;;;;;;4997132;28;20547;-77
2022/10/30 10:45:47;;;;;;;12.77;9.20;;;16.00;86.80;;;;;;5001620;28;21040;-78
2022/10/30 10:48:39;;;;;;;12.70;9.47;;;16.00;86.80;;;;;;4996152;28;20448;-81
2022/10/30 10:51:12;;;;;;;12.33;9.30;;;16.00;86.70;;;;;;4997055;28;20457;-79
2022/10/30 10:53:44;;;;;;;13.23;10.40;;;16.00;86.70;;;;;;5002084;28;20942;-77
2022/10/30 10:56:14;;;;;;;15.50;10.90;;;16.10;86.80;;;;;;5006904;28;20483;-78
2022/10/30 10:58:50;;;;;;;22.00;10.33;;;16.10;86.80;;;;;;5021536;28;20460;-80
2022/10/30 11:01:22;;;;;;;15.80;10.00;;;16.10;86.70;;;;;;5007120;28;20463;-78
2022/10/30 11:03:57;;;;;;;13.80;10.30;;;16.10;86.70;;;;;;4998570;28;20456;-78
2022/10/30 11:06:28;;;;;;;15.53;11.03;;;16.10;86.80;;;;;;5001396;28;21055;-80
2022/10/30 11:09:11;;;;;;;13.50;11.00;;;16.10;86.80;;;;;;5000311;28;21044;-79
2022/10/30 11:11:41;;;;;;;15.37;11.73;;;16.10;86.90;;;;;;5002689;28;20488;-79
2022/10/30 11:14:14;;;;;;;14.00;10.83;;;16.10;87.10;;;;;;5018897;28;20530;-78
2022/10/30 11:16:56;;;;;;;14.40;11.50;;;16.00;87.20;;;;;;5005122;28;20481;-80
2022/10/30 11:19:25;;;;;;;11.30;9.90;;;16.10;87.30;;;;;;5004577;28;20461;-80
2022/10/30 11:21:55;;;;;;;10.50;9.40;;;16.10;87.50;;;;;;5001667;28;20456;-79
2022/10/30 11:24:28;;;;;;;9.20;7.90;;;16.10;87.60;;;;;;4999658;28;20516;-80
2022/10/30 11:26:59;;;;;;;12.73;8.23;;;16.20;87.70;;;;;;4997825;28;20524;-79
2022/10/30 11:29:29;;;;;;;9.90;8.00;;;16.30;87.90;;;;;;5004715;28;20469;-80
2022/10/30 11:32:02;;;;;;;14.37;8.60;;;16.30;87.90;;;;;;5005296;28;21006;-77
2022/10/30 11:34:33;;;;;;;9.27;7.60;;;16.40;88.00;;;;;;5004084;28;21329;-79
2022/10/30 11:37:02;;;;;;;16.40;9.27;;;16.40;88.10;;;;;;5002887;28;20487;-79
2022/10/30 11:39:32;;;;;;;12.20;9.53;;;16.50;88.10;;;;;;5000934;28;20441;-79
2022/10/30 11:42:06;;;;;;;16.40;9.50;;;16.60;88.20;;;;;;5016671;28;21214;-79
2022/10/30 11:44:37;;;;;;;11.13;9.07;;;16.70;88.30;;;;;;5021779;28;20541;-79
2022/10/30 11:47:07;;;;;;;10.90;9.60;;;16.70;88.20;;;;;;4998916;28;20461;-80
2022/10/30 11:49:43;;;;;;;10.10;8.43;;;16.80;88.20;;;;;;5002192;28;20876;-78
2022/10/30 11:52:13;;;;;;;13.30;9.77;;;16.80;88.30;;;;;;5019803;28;20479;-80
2022/10/30 11:54:44;;;;;;;10.13;9.10;;;16.90;88.40;;;;;;5002322;28;20888;-79
2022/10/30 11:57:22;;;;;;;12.27;9.80;;;16.90;88.50;;;;;;5000787;28;20472;-78
2022/10/30 11:59:54;;;;;;;10.70;8.93;;;17.00;88.60;;;;;;5022043;28;20460;-78
2022/10/30 12:02:28;;;;;;;13.30;9.60;;;17.00;88.70;;;;;;5006250;28;20845;-79
2022/10/30 12:05:01;;;;;;;10.00;8.47;;;17.10;88.90;;;;;;5003765;28;20535;-79
2022/10/30 12:07:31;;;;;;;13.57;9.53;;;17.20;88.80;;;;;;4998846;28;20453;-79
2022/10/30 12:10:01;;;;;;;12.47;9.60;;;17.20;88.90;;;;;;5003900;28;20462;-79
2022/10/30 12:12:33;;;;;;;11.60;9.43;;;17.30;89.20;;;;;;5003912;28;20964;-79
2022/10/30 12:15:10;;;;;;;13.53;8.40;;;17.40;89.00;;;;;;5005006;28;20456;-78
2022/10/30 12:17:39;;;;;;;10.80;8.87;;;17.40;89.10;;;;;;5004875;28;20473;-78
2022/10/30 12:20:13;;;;;;;10.83;8.60;;;17.50;89.10;;;;;;5024112;28;20526;-77
2022/10/30 12:22:41;;;;;;;11.67;8.80;;;17.60;89.10;;;;;;5003164;28;20454;-78
2022/10/30 12:25:20;;;;;;;9.27;8.00;;;17.60;89.10;;;;;;5001779;28;20481;-78
2022/10/30 12:27:57;;;;;;;11.73;8.77;;;17.70;89.10;;;;;;5002128;28;20459;-81
2022/10/30 12:30:28;;;;;;;10.90;8.00;;;17.70;89.00;;;;;;5005432;28;20469;-79
2022/10/30 12:33:00;;;;;;;11.07;8.83;;;17.70;89.00;;;;;;5002638;28;20441;-78
2022/10/30 12:35:39;;;;;;;10.43;8.27;;;17.80;89.10;;;;;;5006037;28;20476;-79
2022/10/30 12:38:15;;;;;;;11.30;8.30;;;17.90;89.20;;;;;;4998672;28;21068;-80
2022/10/30 12:40:56;;;;;;;10.57;8.40;;;17.90;89.10;;;;;;5001375;28;20894;-78
2022/10/30 12:43:27;;;;;;;9.30;7.80;;;18.00;89.10;;;;;;5003122;28;20457;-78
2022/10/30 12:46:01;;;;;;;10.10;7.50;;;18.00;89.00;;;;;;5017510;28;20476;-79
2022/10/30 12:48:36;;;;;;;8.77;7.33;;;18.10;89.10;;;;;;5003679;28;20958;-79
2022/10/30 12:51:14;;;;;;;9.47;7.63;;;18.10;89.10;;;;;;5021274;28;20457;-79
2022/10/30 12:53:50;;;;;;;9.37;7.93;;;18.10;89.10;;;;;;5004322;28;20454;-79
2022/10/30 12:56:21;;;;;;;9.33;7.33;;;18.20;89.10;;;;;;5003616;28;20477;-79
2022/10/30 12:58:53;;;;;;;9.87;8.03;;;18.20;89.10;;;;;;5006611;28;20542;-78
2022/10/30 13:01:27;;;;;;;9.37;7.70;;;18.20;89.20;;;;;;4998840;28;20479;-79
2022/10/30 13:04:03;;;;;;;10.20;7.73;;;18.30;89.30;;;;;;5001099;28;20818;-78
2022/10/30 13:06:35;;;;;;;10.87;8.20;;;18.30;89.20;;;;;;5000622;28;20472;-79
2022/10/30 13:09:13;;;;;;;16.33;7.60;;;18.40;89.20;;;;;;4999988;28;20456;-79